Latest Weather Observations for Ngukurr AWS

IDD60801

Issued at 11:31 pm CST Friday 20 January 2017 (issued every 30 minutes, with the page automatically refreshed every 10 minutes)

About weather observations | Map of weather stations | Latest weather observations for NT | Other Formats
Station Details ID: 014299 Name: NGUKURR AIRPORT Lat: -14.72 Lon: 134.75 Height: 14.46 m
Data from the previous 72 hours. | See also: Recent months at Ngukurr AWS
Date/Time
CST
Temp
°C
App
Temp
°C
Dew
Point
°C
Rel
Hum
%
Delta-T
°C
Wind Press
QNH
hPa
Press
MSL
hPa
Rain since
9am
mm
Dir  Spd
km/h
Gust
km/h
Spd
kts
Gust
kts
20/11:30pm 25.9 30.2 24.9 94 0.7 NW 11 19 6 10 1009.9 1009.8 7.4
20/11:00pm 26.0 30.8 25.7 98 0.2 NW 11 19 6 10 1009.9 1009.8 7.4
20/10:30pm 26.1 31.0 25.8 98 0.2 NW 11 17 6 9 1009.9 1009.8 7.4
20/10:00pm 26.6 31.7 26.1 97 0.4 N 11 17 6 9 1009.7 1009.6 7.4
20/09:30pm 27.4 31.5 25.2 88 1.5 N 13 20 7 11 1009.1 1009.0 7.4
20/09:00pm 27.5 34.0 26.3 93 0.9 N 4 7 2 4 1008.9 1008.8 7.4
20/08:30pm 27.4 33.3 26.2 93 0.9 N 7 11 4 6 1008.4 1008.3 7.4
20/08:00pm 27.4 33.4 26.3 94 0.8 E 7 11 4 6 1008.1 1008.0 7.4
20/07:30pm 27.3 34.2 26.8 97 0.4 NNE 4 7 2 4 1007.3 1007.2 7.4
20/07:00pm 27.1 34.1 26.4 96 0.5 NNW 2 4 1 2 1006.8 1006.7 7.4
20/06:30pm 26.8 33.5 26.5 98 0.2 WNW 4 7 2 4 1006.1 1006.0 7.4
20/06:00pm 26.4 31.9 26.1 98 0.2 NW 9 17 5 9 1005.4 1005.3 7.2
20/05:30pm 25.9 30.3 25.7 99 0.1 NW 13 24 7 13 1005.4 1005.3 7.2
20/05:00pm 25.8 28.4 25.5 98 0.2 NW 22 33 12 18 1005.2 1005.1 6.4
20/04:41pm 29.2 30.4 23.9 73 3.7 NNW 24 43 13 23 1004.8 1004.7 0.4
20/04:30pm 34.5 38.4 21.9 48 8.6 SSE 4 9 2 5 1003.7 1003.6 0.0
20/04:00pm 34.9 38.4 21.9 46 8.9 ESE 6 9 3 5 1003.6 1003.5 0.0
20/03:30pm 34.7 38.5 22.4 48 8.5 ESE 6 11 3 6 1004.0 1003.9 0.0
20/03:00pm 34.3 39.0 22.7 50 8.0 SSW 2 6 1 3 1004.5 1004.4 0.0
20/02:30pm 33.5 37.6 22.9 53 7.3 SSW 6 11 3 6 1004.8 1004.7 0.0
20/02:00pm 34.0 38.0 22.7 51 7.8 W 6 9 3 5 1005.3 1005.2 0.0
20/01:30pm 33.8 38.7 24.4 58 6.6 SSW 6 13 3 7 1005.9 1005.8 0.0
20/01:00pm 32.8 36.7 22.6 55 7.0 SSW 6 13 3 7 1006.5 1006.4 0.0
20/12:30pm 32.9 37.1 24.1 60 6.2 W 9 19 5 10 1007.2 1007.1 0.0
20/12:00pm 32.1 36.2 23.3 59 6.1 WNW 7 15 4 8 1007.8 1007.7 0.0
20/11:30am 31.8 35.0 23.1 60 6.0 WNW 11 17 6 9 1008.4 1008.3 0.0
20/11:00am 31.6 36.1 24.0 64 5.3 W 7 13 4 7 1008.6 1008.5 0.0
20/10:30am 31.2 35.0 24.1 66 5.0 W 11 20 6 11 1008.8 1008.7 0.0
20/10:00am 30.1 34.5 23.8 69 4.4 WNW 7 13 4 7 1008.9 1008.8 0.0
20/09:30am 29.5 34.1 24.1 72 3.8 W 7 17 4 9 1008.7 1008.6 0.0
20/09:00am 28.8 33.7 24.6 78 2.9 W 7 15 4 8 1008.7 1008.6 0.0
20/08:30am 27.9 32.8 24.7 83 2.2 WSW 7 9 4 5 1008.7 1008.6 0.0
20/08:00am 26.9 32.2 24.9 89 1.4 WSW 6 9 3 5 1008.6 1008.5 0.0
20/07:30am 26.5 32.5 24.9 91 1.1 W 2 6 1 3 1008.5 1008.4 0.0
20/07:00am 25.9 32.7 25.6 98 0.2 CALM 0 0 0 0 1008.2 1008.1 0.0
20/06:30am 25.0 31.3 24.8 99 0.1 CALM 0 0 0 0 1007.8 1007.7 0.0
20/06:00am 24.9 31.1 24.6 98 0.2 CALM 0 0 0 0 1007.3 1007.2 0.0
20/05:30am 25.0 30.9 24.7 98 0.2 W 2 4 1 2 1007.0 1006.9 0.0
20/05:00am 25.2 30.8 24.9 98 0.2 W 4 6 2 3 1007.0 1006.9 0.0
20/04:30am 25.3 31.0 25.0 98 0.2 WNW 4 7 2 4 1006.9 1006.8 0.0
20/04:00am 25.3 31.0 25.0 98 0.2 W 4 6 2 3 1006.8 1006.7 0.0
20/03:30am 25.4 31.5 25.1 98 0.2 W 2 4 1 2 1006.9 1006.8 0.0
20/03:00am 25.4 31.9 25.1 98 0.2 CALM 0 2 0 1 1007.3 1007.2 0.0
20/02:30am 25.6 31.5 25.3 98 0.2 WNW 4 6 2 3 1007.7 1007.6 0.0
20/02:00am 25.8 31.8 25.5 98 0.2 W 4 6 2 3 1008.1 1008.0 0.0
20/01:30am 26.1 31.7 25.4 96 0.5 NW 6 9 3 5 1008.4 1008.3 0.0
20/01:00am 26.1 31.5 25.2 95 0.6 NW 6 11 3 6 1008.6 1008.5 0.0
20/12:30am 26.4 31.0 24.8 91 1.1 NW 9 17 5 9 1009.0 1008.9 0.0
20/12:00am 26.7 30.4 24.5 88 1.5 NNW 13 20 7 11 1009.0 1008.9 0.0
 
Date/Time
CST
Temp
°C
App
Temp
°C
Dew
Point
°C
Rel
Hum
%
Delta-T
°C
Wind Press
QNH
hPa
Press
MSL
hPa
Rain since
9am
mm
Dir  Spd
km/h
Gust
km/h
Spd
kts
Gust
kts
19/11:30pm 27.0 31.9 24.6 87 1.7 NW 7 11 4 6 1009.2 1009.1 0.0
19/11:00pm 27.2 32.1 24.3 84 2.0 NNW 6 9 3 5 1008.9 1008.8 0.0
19/10:30pm 27.6 32.3 24.0 81 2.5 N 6 9 3 5 1008.4 1008.3 0.0
19/10:00pm 27.9 32.7 24.1 80 2.6 N 6 9 3 5 1008.1 1008.0 0.0
19/09:30pm 28.1 31.9 24.1 79 2.8 N 11 19 6 10 1007.8 1007.7 0.0
19/09:00pm 27.9 32.2 24.3 81 2.5 N 9 13 5 7 1007.8 1007.7 0.0
19/08:30pm 27.9 32.5 24.1 80 2.6 NNE 7 11 4 6 1007.7 1007.6 0.0
19/08:00pm 28.2 32.7 24.0 78 2.9 NNE 7 13 4 7 1007.7 1007.6 0.0
19/07:30pm 28.6 33.5 24.4 78 2.9 NE 6 11 3 6 1007.2 1007.1 0.0
19/07:00pm 29.3 34.2 24.6 76 3.3 NE 7 13 4 7 1006.8 1006.7 0.0
19/06:30pm 29.9 34.3 24.5 73 3.8 NNE 9 13 5 7 1006.3 1006.2 0.0
19/06:00pm 30.4 35.2 24.1 69 4.4 NNE 6 9 3 5 1005.9 1005.8 0.0
19/05:30pm 30.6 34.8 23.5 66 4.9 NNE 7 9 4 5 1005.5 1005.4 0.0
19/05:00pm 31.1 35.6 23.7 64 5.1 NNE 6 9 3 5 1005.3 1005.2 0.0
19/04:30pm 31.5 36.0 23.6 63 5.5 NNE 6 7 3 4 1005.3 1005.2 0.0
19/04:00pm 31.8 35.6 22.8 59 6.2 N 7 9 4 5 1005.7 1005.6 0.0
19/03:30pm 32.0 36.6 23.8 62 5.7 S 6 17 3 9 1006.1 1006.0 0.0
19/03:00pm 32.6 37.7 23.3 58 6.4 WSW 2 9 1 5 1006.5 1006.4 0.0
19/02:30pm 34.6 39.6 23.9 53 7.5 SW 4 11 2 6 1006.8 1006.7 0.0
19/02:00pm 33.6 38.3 23.3 55 7.1 SSE 4 7 2 4 1007.4 1007.3 0.0
19/01:30pm 32.7 37.4 23.3 57 6.5 SSW 4 9 2 5 1008.1 1008.0 0.0
19/01:00pm 32.8 37.3 22.9 56 6.8 SW 4 11 2 6 1008.7 1008.6 0.0
19/12:30pm 33.0 38.2 24.2 60 6.2 SSW 4 9 2 5 1009.2 1009.1 0.0
19/12:00pm 32.2 37.1 23.7 61 5.9 W 4 9 2 5 1009.7 1009.6 0.0
19/11:30am 32.0 36.4 23.8 62 5.7 NW 7 17 4 9 1009.9 1009.8 0.0
19/11:00am 31.0 35.3 23.6 64 5.1 NW 7 15 4 8 1010.2 1010.1 0.0
19/10:30am 30.6 36.1 24.7 71 4.1 NW 4 7 2 4 1010.6 1010.5 0.0
19/10:00am 30.1 35.4 24.3 71 4.0 WNW 4 7 2 4 1011.0 1010.9 0.0
19/09:30am 29.4 34.8 24.5 75 3.4 N 4 9 2 5 1011.0 1010.9 0.0
19/09:00am 28.9 34.5 24.9 79 2.8 E 4 7 2 4 1011.1 1011.0 0.2
19/08:30am 28.5 34.4 24.7 80 2.7 ENE 2 7 1 4 1011.1 1011.0 0.2
19/08:00am 27.8 32.9 24.6 83 2.2 ESE 6 7 3 4 1011.0 1010.9 0.2
19/07:30am 26.8 32.6 25.2 91 1.1 ESE 4 7 2 4 1011.1 1011.0 0.2
19/07:00am 26.1 33.1 25.9 99 0.1 CALM 0 4 0 2 1010.9 1010.8 0.2
19/06:30am 24.9 31.2 24.7 99 0.1 CALM 0 0 0 0 1010.5 1010.4 0.2
19/06:00am 24.6 30.7 24.4 99 0.1 CALM 0 0 0 0 1010.1 1010.0 0.2
19/05:30am 24.7 30.8 24.5 99 0.1 CALM 0 0 0 0 1009.6 1009.5 0.2
19/05:00am 24.8 31.0 24.6 99 0.1 CALM 0 0 0 0 1009.1 1009.0 0.2
19/04:30am 25.1 31.4 24.8 98 0.2 CALM 0 2 0 1 1009.0 1008.9 0.2
19/04:00am 25.3 30.6 25.0 98 0.2 W 6 7 3 4 1009.0 1008.9 0.2
19/03:30am 25.6 31.9 25.4 99 0.1 W 2 4 1 2 1009.1 1009.0 0.2
19/03:00am 26.0 32.1 25.7 98 0.2 WNW 4 4 2 2 1009.3 1009.2 0.2
19/02:30am 26.1 32.3 25.8 98 0.2 NW 4 6 2 3 1009.2 1009.1 0.2
19/02:00am 26.3 33.0 26.0 98 0.2 WNW 2 4 1 2 1009.5 1009.4 0.2
19/01:30am 26.4 33.2 26.1 98 0.2 W 2 4 1 2 1009.9 1009.8 0.2
19/01:00am 26.6 33.9 26.3 98 0.2 CALM 0 0 0 0 1010.2 1010.1 0.2
19/12:30am 26.7 34.1 26.4 98 0.2 CALM 0 0 0 0 1010.8 1010.7 0.2
19/12:00am 26.7 34.1 26.4 98 0.2 CALM 0 2 0 1 1011.2 1011.1 0.2
 
Date/Time
CST
Temp
°C
App
Temp
°C
Dew
Point
°C
Rel
Hum
%
Delta-T
°C
Wind Press
QNH
hPa
Press
MSL
hPa
Rain since
9am
mm
Dir  Spd
km/h
Gust
km/h
Spd
kts
Gust
kts
18/11:30pm 26.8 33.1 26.5 98 0.2 W 6 9 3 5 1011.2 1011.1 0.2
18/11:00pm 26.8 33.5 26.5 98 0.2 W 4 6 2 3 1011.6 1011.5 0.2
18/10:30pm 26.8 33.5 26.5 98 0.2 WNW 4 4 2 2 1011.4 1011.3 0.2
18/10:00pm 26.9 34.4 26.6 98 0.2 CALM 0 0 0 0 1011.4 1011.3 0.2
18/09:30pm 27.1 33.7 26.4 96 0.5 NNW 4 6 2 3 1011.3 1011.2 0.2
18/09:00pm 27.4 33.9 25.6 90 1.3 N 2 4 1 2 1011.2 1011.1 0.2
18/08:30pm 27.7 33.5 25.1 86 1.8 NNE 4 6 2 3 1010.9 1010.8 0.2
18/08:00pm 27.9 32.9 24.5 82 2.4 ENE 6 9 3 5 1010.6 1010.5 0.2
18/07:30pm 28.3 32.9 24.1 78 2.9 NE 7 11 4 6 1010.0 1009.9 0.2
18/07:00pm 28.7 32.5 23.4 73 3.6 NNE 9 17 5 9 1009.4 1009.3 0.2
18/06:30pm 29.4 32.4 24.0 72 3.7 NNE 15 22 8 12 1008.7 1008.6 0.2
18/06:00pm 29.5 32.6 24.1 72 3.8 NE 15 24 8 13 1008.3 1008.2 0.2
18/05:30pm 29.5 33.1 25.0 77 3.2 NNE 15 22 8 12 1008.5 1008.4 0.2
18/05:00pm 29.6 34.2 24.7 75 3.4 NE 9 17 5 9 1008.5 1008.4 0.2
18/04:30pm 29.8 33.9 24.0 71 4.0 NE 9 19 5 10 1008.2 1008.1 0.2
18/04:00pm 29.8 33.2 24.0 71 4.0 ENE 13 19 7 10 1008.2 1008.1 0.2
18/03:30pm 29.5 32.7 24.4 74 3.6 ENE 15 20 8 11 1007.9 1007.8 0.2
18/03:00pm 29.2 32.3 24.1 74 3.5 NE 15 24 8 13 1008.5 1008.4 0.2
18/02:30pm 29.6 31.5 23.5 69 4.2 ENE 19 28 10 15 1009.0 1008.9 0.2
18/02:00pm 32.3 36.3 23.8 61 5.9 ENE 9 11 5 6 1009.0 1008.9 0.2
18/01:30pm 32.2 35.9 22.3 56 6.8 NE 6 9 3 5 1009.2 1009.1 0.2
18/01:00pm 32.9 37.6 22.7 55 7.0 W 2 6 1 3 1009.7 1009.6 0.2
18/12:30pm 32.6 37.3 22.7 56 6.8 S 2 9 1 5 1009.8 1009.7 0.2
18/12:00pm 32.2 36.8 23.2 59 6.2 W 4 9 2 5 1010.2 1010.1 0.2
18/11:30am 32.1 36.9 24.2 63 5.5 WNW 6 9 3 5 1010.6 1010.5 0.2
18/11:00am 31.7 36.3 24.8 67 4.9 NW 9 15 5 8 1010.8 1010.7 0.2
18/10:30am 30.9 36.2 25.0 71 4.2 NW 6 11 3 6 1011.1 1011.0 0.2
18/10:00am 30.5 36.7 26.4 79 2.9 NW 6 9 3 5 1011.4 1011.3 0.2
18/09:30am 29.1 36.1 26.5 86 1.9 N 2 6 1 3 1011.7 1011.6 0.0
18/09:00am 28.4 36.3 27.2 93 0.9 CALM 0 0 0 0 1011.8 1011.7 2.0
18/08:30am 27.6 35.6 27.4 99 0.1 CALM 0 0 0 0 1011.7 1011.6 2.0
18/08:00am 27.1 34.9 27.1 100 0.0 CALM 0 0 0 0 1011.6 1011.5 2.0
18/07:30am 26.3 33.6 26.3 100 0.0 CALM 0 0 0 0 1011.4 1011.3 2.0
18/07:00am 26.0 33.1 26.0 100 0.0 CALM 0 0 0 0 1011.1 1011.0 2.0
18/06:30am 25.8 32.8 25.8 100 0.0 CALM 0 0 0 0 1010.6 1010.5 2.0
18/06:00am 25.9 32.9 25.9 100 0.0 CALM 0 0 0 0 1010.1 1010.0 1.8
18/05:30am 26.1 33.3 26.1 100 0.0 CALM 0 0 0 0 1009.6 1009.5 1.8
18/05:00am 26.1 33.3 26.1 100 0.0 CALM 0 0 0 0 1009.1 1009.0 1.8
18/04:30am 26.2 33.4 26.2 100 0.0 CALM 0 0 0 0 1009.0 1008.9 1.8
18/04:00am 26.1 33.3 26.1 100 0.0 CALM 0 2 0 1 1008.9 1008.8 1.8
18/03:30am 26.1 33.1 25.9 99 0.1 CALM 0 0 0 0 1008.9 1008.8 1.8
18/03:00am 26.2 33.3 26.0 99 0.1 CALM 0 0 0 0 1008.7 1008.6 1.8
18/02:30am 26.1 32.4 25.9 99 0.1 N 4 6 2 3 1008.5 1008.4 1.8
18/02:00am 26.3 33.5 26.1 99 0.1 CALM 0 0 0 0 1008.7 1008.6 1.6
18/01:30am 26.1 33.1 25.9 99 0.1 CALM 0 0 0 0 1008.9 1008.8 1.2
18/01:00am 26.1 32.4 25.9 99 0.1 E 4 6 2 3 1009.3 1009.2 0.8
18/12:30am 26.1 33.1 25.9 99 0.1 CALM 0 0 0 0 1009.6 1009.5 0.6
18/12:00am 26.2 33.2 25.9 98 0.2 CALM 0 0 0 0 1009.6 1009.5 0.4

Other Formats:

Comma delimited format used in spreadsheet applications
http://www.bom.gov.au/fwo/IDD60801/IDD60801.94106.axf

JavaScript Object Notation format (JSON) in row-major order
http://www.bom.gov.au/fwo/IDD60801/IDD60801.94106.json